createdAt,value
2023-01-29T00:01:36.832Z,26.95
2023-01-29T00:03:44.917Z,23.58
2023-01-29T00:05:50.057Z,25.00
2023-01-29T00:07:56.628Z,27.30
2023-01-29T00:10:01.756Z,23.70
2023-01-29T00:12:13.134Z,29.23
2023-01-29T00:14:22.566Z,24.75
2023-01-29T00:16:27.655Z,21.83
2023-01-29T00:18:33.291Z,25.02
2023-01-29T00:20:38.207Z,28.30
2023-01-29T00:22:43.130Z,26.00
2023-01-29T00:24:55.533Z,23.95
2023-01-29T00:27:02.403Z,30.02
2023-01-29T00:29:07.638Z,23.20
2023-01-29T00:31:18.718Z,24.92
2023-01-29T00:33:25.024Z,25.55
2023-01-29T00:35:31.067Z,24.98
2023-01-29T00:37:39.170Z,25.58
2023-01-29T00:39:48.111Z,25.58
2023-01-29T00:42:05.586Z,25.20
2023-01-29T00:44:23.512Z,23.98
2023-01-29T00:46:31.073Z,21.55
2023-01-29T00:48:36.333Z,25.67
2023-01-29T00:50:41.395Z,29.30
2023-01-29T00:52:46.618Z,27.95
2023-01-29T00:54:51.755Z,22.30
2023-01-29T00:56:56.902Z,24.92
2023-01-29T00:59:01.907Z,27.95
2023-01-29T01:01:07.278Z,28.95
2023-01-29T01:03:18.236Z,25.67
2023-01-29T01:05:31.244Z,26.98
2023-01-29T01:07:37.005Z,28.40
2023-01-29T01:09:55.652Z,23.92
2023-01-29T01:12:01.018Z,27.33
2023-01-29T01:14:08.940Z,23.90
2023-01-29T01:16:16.633Z,22.05
2023-01-29T01:18:25.424Z,21.23
2023-01-29T01:20:32.492Z,25.67
2023-01-29T01:22:39.954Z,24.85
2023-01-29T01:24:53.807Z,27.60
2023-01-29T01:26:58.705Z,30.92
2023-01-29T01:29:03.690Z,26.67
2023-01-29T01:31:14.920Z,25.52
2023-01-29T01:33:20.667Z,28.38
2023-01-29T01:35:28.648Z,27.05
2023-01-29T01:37:33.693Z,25.40
2023-01-29T01:39:39.006Z,25.70
2023-01-29T01:41:44.278Z,22.42
2023-01-29T01:43:54.561Z,20.85
2023-01-29T01:46:02.175Z,18.52
2023-01-29T01:48:14.464Z,24.30
2023-01-29T01:50:25.136Z,24.10
2023-01-29T01:52:35.880Z,21.40
2023-01-29T01:54:40.664Z,22.58
2023-01-29T01:56:52.871Z,24.75
2023-01-29T01:59:00.192Z,22.90
2023-01-29T02:01:08.989Z,23.15
2023-01-29T02:03:29.350Z,23.73
2023-01-29T02:05:50.666Z,21.42
2023-01-29T02:08:10.715Z,24.52
2023-01-29T02:10:19.030Z,23.40
2023-01-29T02:12:25.374Z,22.45
2023-01-29T02:14:32.197Z,23.83
2023-01-29T02:16:38.114Z,23.77
2023-01-29T02:18:43.159Z,25.15
2023-01-29T02:21:00.286Z,24.05
2023-01-29T02:23:49.696Z,24.23
2023-01-29T02:26:13.291Z,26.50
2023-01-29T02:28:42.303Z,26.50
2023-01-29T02:30:57.270Z,24.10
2023-01-29T02:33:09.184Z,30.67
2023-01-29T02:35:28.683Z,32.97
2023-01-29T02:37:39.595Z,30.83
2023-01-29T02:39:56.284Z,35.25
2023-01-29T02:42:12.215Z,29.63
2023-01-29T02:44:27.600Z,26.90
2023-01-29T02:46:38.063Z,34.20
2023-01-29T02:48:48.942Z,31.25
2023-01-29T02:51:01.868Z,37.50
2023-01-29T02:53:15.951Z,34.40
2023-01-29T02:55:27.072Z,36.35
2023-01-29T02:57:36.974Z,37.38
2023-01-29T02:59:51.443Z,31.40
2023-01-29T03:02:01.443Z,36.95
2023-01-29T03:04:12.561Z,33.70
2023-01-29T03:06:28.443Z,39.88
2023-01-29T03:08:44.484Z,37.22
2023-01-29T03:10:59.877Z,38.03
2023-01-29T03:13:09.650Z,36.38
2023-01-29T03:15:26.878Z,38.10
2023-01-29T03:17:40.621Z,36.17
2023-01-29T03:19:51.517Z,35.30
2023-01-29T03:22:02.145Z,36.90
2023-01-29T03:24:24.459Z,33.55
2023-01-29T03:26:41.847Z,33.92
2023-01-29T03:29:02.906Z,36.25
2023-01-29T03:31:27.538Z,36.95
2023-01-29T03:33:36.667Z,33.03
2023-01-29T03:35:50.102Z,34.08
2023-01-29T03:37:57.134Z,38.55
2023-01-29T03:40:02.119Z,40.03
2023-01-29T03:42:16.577Z,34.40
2023-01-29T03:44:29.878Z,43.20
2023-01-29T03:46:47.605Z,36.35
2023-01-29T03:48:59.080Z,34.40
2023-01-29T03:51:18.237Z,36.03
2023-01-29T03:53:28.622Z,38.88
2023-01-29T03:55:41.219Z,34.95
2023-01-29T03:57:57.903Z,30.55
2023-01-29T04:00:09.712Z,29.77
2023-01-29T04:02:28.181Z,37.92
2023-01-29T04:04:37.130Z,35.85
2023-01-29T04:06:46.713Z,43.13
2023-01-29T04:08:59.050Z,37.13
2023-01-29T04:11:13.662Z,31.95
2023-01-29T04:13:24.897Z,34.38
2023-01-29T04:15:36.382Z,39.42
2023-01-29T04:17:48.125Z,34.92
2023-01-29T04:19:54.490Z,36.47
2023-01-29T04:22:06.879Z,39.35
2023-01-29T04:24:15.682Z,36.22
2023-01-29T04:26:34.433Z,35.65
2023-01-29T04:28:54.234Z,34.38
2023-01-29T04:31:07.901Z,33.78
2023-01-29T04:33:32.663Z,38.20
2023-01-29T04:35:53.467Z,37.53
2023-01-29T04:38:09.345Z,37.90
2023-01-29T04:40:30.912Z,37.58
2023-01-29T04:42:47.767Z,34.63
2023-01-29T04:45:01.953Z,33.90
2023-01-29T04:47:22.104Z,32.92
2023-01-29T04:49:39.473Z,33.08
2023-01-29T04:51:53.468Z,32.90
2023-01-29T04:54:05.514Z,33.08
2023-01-29T04:56:16.779Z,34.63
2023-01-29T04:58:29.769Z,33.00
2023-01-29T05:00:40.603Z,34.60
2023-01-29T05:02:48.086Z,39.20
2023-01-29T05:04:58.985Z,36.00
2023-01-29T05:07:07.142Z,35.60
2023-01-29T05:09:13.027Z,33.25
2023-01-29T05:11:24.385Z,33.85
2023-01-29T05:13:32.327Z,35.50
2023-01-29T05:15:45.381Z,31.15
2023-01-29T05:20:02.505Z,32.70
2023-01-29T05:22:12.228Z,33.08
2023-01-29T05:24:19.880Z,39.72
2023-01-29T05:26:37.539Z,33.78
2023-01-29T05:28:42.632Z,35.60
2023-01-29T05:30:51.944Z,36.65
2023-01-29T05:32:57.568Z,38.75
2023-01-29T05:35:05.296Z,35.97
2023-01-29T05:37:10.615Z,34.17
2023-01-29T05:39:15.543Z,39.17
2023-01-29T05:41:24.436Z,33.15
2023-01-29T05:43:29.546Z,31.90
2023-01-29T05:45:37.617Z,34.60
2023-01-29T05:47:42.799Z,33.60
2023-01-29T05:49:48.083Z,37.55
2023-01-29T05:51:56.005Z,37.08
2023-01-29T05:54:00.955Z,33.58
2023-01-29T05:56:07.383Z,34.88
2023-01-29T05:58:12.561Z,34.40
2023-01-29T06:00:23.708Z,32.25
2023-01-29T06:02:28.981Z,27.42
2023-01-29T06:04:33.996Z,32.08
2023-01-29T06:06:41.852Z,34.72
2023-01-29T06:08:49.553Z,34.92
2023-01-29T06:10:56.262Z,38.53
2023-01-29T06:13:03.588Z,35.83
2023-01-29T06:15:12.154Z,34.85
2023-01-29T06:17:16.947Z,39.55
2023-01-29T06:19:21.854Z,40.50
2023-01-29T06:21:27.208Z,37.05
2023-01-29T06:23:32.102Z,34.30
2023-01-29T06:25:39.921Z,36.13
2023-01-29T06:27:45.429Z,35.90
2023-01-29T06:29:53.025Z,33.40
2023-01-29T06:31:58.062Z,38.17
2023-01-29T06:34:03.936Z,38.42
2023-01-29T06:36:13.193Z,32.63
2023-01-29T06:38:18.469Z,33.95
2023-01-29T06:40:25.904Z,36.05
2023-01-29T06:42:33.398Z,36.40
2023-01-29T06:44:38.348Z,36.72
2023-01-29T06:46:43.493Z,37.13
2023-01-29T06:48:48.678Z,33.35
2023-01-29T06:50:55.488Z,36.63
2023-01-29T06:53:03.638Z,36.95
2023-01-29T06:55:12.851Z,36.28
2023-01-29T06:57:20.530Z,40.83
2023-01-29T06:59:28.621Z,36.63
2023-01-29T07:01:36.692Z,38.22
2023-01-29T07:03:44.298Z,38.20
2023-01-29T07:05:58.029Z,38.50
2023-01-29T07:08:04.119Z,43.25
2023-01-29T07:10:12.194Z,37.70
2023-01-29T07:12:17.283Z,33.78
2023-01-29T07:14:22.151Z,36.72
2023-01-29T07:16:30.296Z,36.40
2023-01-29T07:18:35.625Z,38.65
2023-01-29T07:20:41.766Z,39.90
2023-01-29T07:22:46.682Z,40.45
2023-01-29T07:24:51.644Z,35.92
2023-01-29T07:26:57.020Z,40.42
2023-01-29T07:29:03.011Z,35.90
2023-01-29T07:31:08.642Z,36.13
2023-01-29T07:33:17.333Z,37.45
2023-01-29T07:35:22.324Z,38.42
2023-01-29T07:37:27.332Z,35.95
2023-01-29T07:39:33.215Z,38.85
2023-01-29T07:41:38.518Z,37.03
2023-01-29T07:43:43.930Z,35.40
2023-01-29T07:45:48.785Z,37.30
2023-01-29T07:47:56.081Z,48.47
2023-01-29T07:50:03.851Z,39.47
2023-01-29T07:52:10.548Z,40.22
2023-01-29T07:54:15.421Z,42.03
2023-01-29T07:56:20.685Z,41.78
2023-01-29T07:58:26.183Z,35.95
2023-01-29T08:00:32.079Z,43.75
2023-01-29T08:02:37.187Z,39.40
2023-01-29T08:04:42.289Z,39.30
2023-01-29T08:06:49.768Z,43.88
2023-01-29T08:08:56.162Z,37.72
2023-01-29T08:11:07.106Z,43.58
2023-01-29T08:13:12.359Z,39.45
2023-01-29T08:15:19.141Z,40.95
2023-01-29T08:17:24.041Z,44.28
2023-01-29T08:19:29.963Z,38.63
2023-01-29T08:21:36.261Z,38.22
2023-01-29T08:23:44.094Z,40.70
2023-01-29T08:25:49.210Z,41.20
2023-01-29T08:27:54.309Z,36.90
2023-01-29T08:30:00.720Z,41.72
2023-01-29T08:32:08.103Z,39.28
2023-01-29T08:34:12.961Z,42.58
2023-01-29T08:36:21.055Z,43.42
2023-01-29T08:38:25.853Z,43.05
2023-01-29T08:40:36.375Z,40.03
2023-01-29T08:42:41.859Z,40.03
2023-01-29T08:44:46.663Z,41.83
2023-01-29T08:46:51.921Z,41.20
2023-01-29T08:48:56.943Z,44.53
2023-01-29T08:51:07.466Z,45.22
2023-01-29T08:53:14.781Z,42.67
2023-01-29T08:55:20.137Z,42.15
2023-01-29T08:57:30.705Z,45.08
2023-01-29T08:59:36.966Z,44.65
2023-01-29T09:01:41.981Z,48.83
2023-01-29T09:03:47.144Z,45.50
2023-01-29T09:05:52.905Z,49.88
2023-01-29T09:07:59.704Z,41.05
2023-01-29T09:10:05.014Z,49.83
2023-01-29T09:12:10.561Z,43.58
2023-01-29T09:14:18.412Z,45.00
2023-01-29T09:16:23.417Z,50.17
2023-01-29T09:18:28.497Z,52.03
2023-01-29T09:20:33.516Z,57.33
2023-01-29T09:22:41.752Z,51.88
2023-01-29T09:24:48.102Z,48.58
2023-01-29T09:26:52.927Z,42.78
2023-01-29T09:28:58.664Z,49.78
2023-01-29T09:31:07.327Z,49.30
2023-01-29T09:33:12.361Z,51.47
2023-01-29T09:35:17.789Z,48.05
2023-01-29T09:37:24.090Z,52.85
2023-01-29T09:39:30.104Z,50.30
2023-01-29T09:41:46.714Z,50.33
2023-01-29T09:43:56.293Z,47.00
2023-01-29T09:46:08.498Z,51.75
2023-01-29T09:48:15.694Z,51.75
2023-01-29T09:50:24.836Z,60.25
2023-01-29T09:52:33.384Z,44.00
2023-01-29T09:54:54.797Z,55.33
2023-01-29T09:57:00.920Z,55.78
2023-01-29T09:59:08.455Z,65.72
2023-01-29T10:01:25.401Z,55.75
2023-01-29T10:03:46.689Z,60.92
2023-01-29T10:06:02.678Z,56.78
2023-01-29T10:08:48.033Z,59.03
2023-01-29T10:10:54.643Z,63.15
2023-01-29T10:13:10.802Z,60.80
2023-01-29T10:15:32.956Z,52.80
2023-01-29T10:17:56.799Z,55.33
2023-01-29T10:20:28.654Z,63.65
2023-01-29T10:22:59.791Z,52.90
2023-01-29T10:25:07.131Z,57.53
2023-01-29T10:27:20.099Z,59.53
2023-01-29T10:29:25.424Z,63.35
2023-01-29T10:31:36.645Z,50.10
2023-01-29T10:34:00.980Z,59.05
2023-01-29T10:36:12.768Z,64.45
2023-01-29T10:38:41.903Z,58.70
2023-01-29T10:40:54.802Z,65.18
2023-01-29T10:43:07.800Z,61.70
2023-01-29T10:45:26.684Z,56.08
2023-01-29T10:47:46.728Z,59.30
2023-01-29T10:50:11.958Z,61.55
2023-01-29T10:52:34.202Z,56.45
2023-01-29T10:54:53.274Z,61.30
2023-01-29T10:57:10.995Z,59.50
2023-01-29T10:59:33.955Z,57.30
2023-01-29T11:01:39.867Z,61.03
2023-01-29T11:03:49.351Z,69.40
2023-01-29T11:06:02.776Z,61.13
2023-01-29T11:08:16.778Z,58.70
2023-01-29T11:10:25.838Z,57.00
2023-01-29T11:12:33.989Z,67.13
2023-01-29T11:14:46.915Z,57.90
2023-01-29T11:16:52.402Z,65.75
2023-01-29T11:19:00.383Z,64.65
2023-01-29T11:21:08.310Z,66.68
2023-01-29T11:23:30.185Z,57.08
2023-01-29T11:25:35.656Z,69.55
2023-01-29T11:27:46.767Z,65.47
2023-01-29T11:29:52.901Z,52.83
2023-01-29T11:31:58.762Z,68.30
2023-01-29T11:34:08.568Z,63.78
2023-01-29T11:36:45.309Z,59.45
2023-01-29T11:38:50.634Z,58.80
2023-01-29T11:40:59.794Z,64.30
2023-01-29T11:43:21.050Z,62.50
2023-01-29T11:45:32.751Z,59.38
2023-01-29T11:47:39.916Z,66.45
2023-01-29T11:49:49.469Z,67.70
2023-01-29T11:52:05.659Z,70.30
2023-01-29T11:54:20.615Z,67.85
2023-01-29T11:56:30.417Z,64.78
2023-01-29T11:58:38.498Z,71.70
2023-01-29T12:00:48.861Z,71.40
2023-01-29T12:02:58.912Z,71.85
2023-01-29T12:05:08.650Z,70.22
2023-01-29T12:07:20.912Z,66.78
2023-01-29T12:09:30.259Z,54.83
2023-01-29T12:11:36.937Z,62.67
2023-01-29T12:13:43.436Z,63.50
2023-01-29T12:15:54.714Z,67.30
2023-01-29T12:18:11.786Z,63.10
2023-01-29T12:20:21.872Z,63.85
2023-01-29T12:22:46.150Z,61.63
2023-01-29T12:24:58.789Z,63.35
2023-01-29T12:27:17.452Z,62.92
2023-01-29T12:29:35.020Z,55.13
2023-01-29T12:31:46.901Z,56.17
2023-01-29T12:33:56.867Z,59.13
2023-01-29T12:36:11.013Z,63.35
2023-01-29T12:38:21.987Z,50.75
2023-01-29T12:40:33.271Z,56.65
2023-01-29T12:42:41.364Z,56.50
2023-01-29T12:44:50.000Z,59.10
2023-01-29T12:46:58.697Z,69.47
2023-01-29T12:49:10.654Z,53.65
2023-01-29T12:51:24.613Z,60.78
2023-01-29T12:53:39.823Z,55.30
2023-01-29T12:55:54.268Z,53.03
2023-01-29T12:58:01.073Z,57.80
2023-01-29T13:00:11.988Z,64.03
2023-01-29T13:02:26.771Z,50.63
2023-01-29T13:04:49.849Z,65.70
2023-01-29T13:07:00.175Z,58.03
2023-01-29T13:09:12.674Z,54.47
2023-01-29T13:11:22.622Z,69.50
2023-01-29T13:13:33.809Z,57.97
2023-01-29T13:15:42.109Z,56.10
2023-01-29T13:17:51.228Z,55.95
2023-01-29T13:20:00.827Z,59.88
2023-01-29T13:22:14.091Z,64.32
2023-01-29T13:24:25.311Z,69.72
2023-01-29T13:26:31.218Z,64.63
2023-01-29T13:28:40.152Z,52.40
2023-01-29T13:30:45.672Z,56.67
2023-01-29T13:32:55.730Z,62.83
2023-01-29T13:35:03.903Z,53.05
2023-01-29T13:37:17.552Z,52.25
2023-01-29T13:39:44.959Z,55.97
2023-01-29T13:41:50.278Z,58.90
2023-01-29T13:43:55.608Z,56.92
2023-01-29T13:46:01.606Z,54.67
2023-01-29T13:48:15.737Z,59.35
2023-01-29T13:50:31.406Z,56.92
2023-01-29T13:52:44.709Z,49.42
2023-01-29T13:55:00.792Z,59.28
2023-01-29T13:57:09.051Z,67.43
2023-01-29T13:59:48.349Z,47.45
2023-01-29T14:02:24.785Z,55.28
2023-01-29T14:04:33.340Z,55.92
2023-01-29T14:06:54.643Z,52.33
2023-01-29T14:09:03.910Z,54.55
2023-01-29T14:11:41.515Z,50.38
2023-01-29T14:13:52.852Z,53.67
2023-01-29T14:16:27.657Z,52.60
2023-01-29T14:18:37.852Z,54.58
2023-01-29T14:20:51.832Z,51.75
2023-01-29T14:23:00.487Z,49.58
2023-01-29T14:25:08.531Z,58.38
2023-01-29T14:27:28.846Z,50.47
2023-01-29T14:29:47.797Z,48.05
2023-01-29T14:31:57.154Z,50.97
2023-01-29T14:34:06.896Z,47.65
2023-01-29T14:36:18.941Z,59.05
2023-01-29T14:38:27.250Z,59.97
2023-01-29T14:40:38.243Z,55.40
2023-01-29T14:43:00.056Z,49.70
2023-01-29T14:45:12.749Z,52.42
2023-01-29T14:47:22.526Z,49.75
2023-01-29T14:49:54.180Z,54.22
2023-01-29T14:52:00.934Z,58.00
2023-01-29T14:54:16.933Z,62.00
2023-01-29T14:56:33.323Z,46.35
2023-01-29T14:58:49.611Z,53.08
2023-01-29T15:01:00.574Z,53.13
2023-01-29T15:03:08.178Z,57.80
2023-01-29T15:05:22.654Z,50.67
2023-01-29T15:07:36.367Z,53.25
2023-01-29T15:09:45.794Z,50.70
2023-01-29T15:11:59.071Z,48.50
2023-01-29T15:14:17.177Z,54.95
2023-01-29T15:16:30.258Z,49.45
2023-01-29T15:18:40.565Z,53.88
2023-01-29T15:20:46.995Z,50.08
2023-01-29T15:22:52.151Z,50.35
2023-01-29T15:25:10.728Z,50.00
2023-01-29T15:27:24.044Z,52.72
2023-01-29T15:31:38.620Z,65.15
2023-01-29T15:33:48.884Z,61.92
2023-01-29T15:36:08.427Z,58.60
2023-01-29T15:38:20.483Z,57.88
2023-01-29T15:40:25.804Z,60.72
2023-01-29T15:42:31.588Z,54.97
2023-01-29T15:44:38.091Z,50.83
2023-01-29T15:46:50.817Z,63.42
2023-01-29T15:48:57.412Z,53.92
2023-01-29T15:51:05.509Z,69.32
2023-01-29T15:53:17.396Z,53.45
2023-01-29T15:55:25.679Z,60.80
2023-01-29T15:57:37.482Z,63.17
2023-01-29T15:59:51.988Z,63.45
2023-01-29T16:02:20.756Z,63.45
2023-01-29T16:04:30.394Z,58.30
2023-01-29T16:06:41.933Z,64.85
2023-01-29T16:08:49.719Z,59.45
2023-01-29T16:11:00.112Z,60.97
2023-01-29T16:13:44.758Z,64.80
2023-01-29T16:16:00.157Z,57.17
2023-01-29T16:18:24.328Z,64.97
2023-01-29T16:20:46.869Z,63.83
2023-01-29T16:22:51.862Z,52.60
2023-01-29T16:25:04.215Z,59.35
2023-01-29T16:27:14.363Z,42.05
2023-01-29T16:29:22.565Z,65.80
2023-01-29T16:31:30.961Z,47.47
2023-01-29T16:33:41.019Z,64.55
2023-01-29T16:35:46.698Z,64.18
2023-01-29T16:37:53.632Z,69.10
2023-01-29T16:39:59.960Z,51.40
2023-01-29T16:42:25.398Z,53.22
2023-01-29T16:44:38.044Z,55.65
2023-01-29T16:46:51.263Z,53.05
2023-01-29T16:49:00.780Z,49.40
2023-01-29T16:51:12.242Z,60.75
2023-01-29T16:53:23.522Z,60.10
2023-01-29T16:55:29.881Z,52.28
2023-01-29T16:57:36.962Z,48.17
2023-01-29T16:59:43.781Z,60.33
2023-01-29T17:01:49.623Z,52.83
2023-01-29T17:04:05.460Z,55.08
2023-01-29T17:06:15.741Z,42.70
2023-01-29T17:08:27.520Z,59.65
2023-01-29T17:10:37.157Z,40.22
2023-01-29T17:12:42.591Z,55.47
2023-01-29T17:14:56.779Z,63.20
2023-01-29T17:17:07.043Z,56.03
2023-01-29T17:19:24.474Z,55.15
2023-01-29T17:21:30.403Z,57.67
2023-01-29T17:23:35.406Z,61.28
2023-01-29T17:25:41.050Z,40.97
2023-01-29T17:27:51.926Z,53.35
2023-01-29T17:29:56.963Z,50.05
2023-01-29T17:32:02.655Z,52.78
2023-01-29T17:34:14.407Z,50.67
2023-01-29T17:36:22.258Z,49.17
2023-01-29T17:38:28.688Z,48.97
2023-01-29T17:40:40.956Z,55.60
2023-01-29T17:42:47.131Z,48.90
2023-01-29T17:44:52.140Z,47.95
2023-01-29T17:46:58.818Z,46.95
2023-01-29T17:49:04.616Z,43.53
2023-01-29T17:51:17.399Z,51.30
2023-01-29T17:53:43.241Z,55.08
2023-01-29T17:55:51.908Z,45.15
2023-01-29T17:57:56.857Z,54.25
2023-01-29T18:00:05.643Z,52.30
2023-01-29T18:02:29.709Z,44.15
2023-01-29T18:04:38.638Z,43.72
2023-01-29T18:06:44.971Z,50.28
2023-01-29T18:08:52.970Z,48.70
2023-01-29T18:10:58.624Z,47.15
2023-01-29T18:13:03.974Z,48.60
2023-01-29T18:15:11.034Z,42.83
2023-01-29T18:17:22.372Z,47.00
2023-01-29T18:19:31.355Z,41.75
2023-01-29T18:21:43.005Z,41.45
2023-01-29T18:23:54.337Z,39.33
2023-01-29T18:26:00.900Z,36.08
2023-01-29T18:28:08.143Z,37.80
2023-01-29T18:30:16.393Z,40.47
2023-01-29T18:32:23.241Z,35.17
2023-01-29T18:34:29.395Z,32.67
2023-01-29T18:36:37.144Z,44.03
2023-01-29T18:38:42.134Z,42.88
2023-01-29T18:40:50.331Z,41.47
2023-01-29T18:42:58.823Z,36.78
2023-01-29T18:45:04.220Z,32.72
2023-01-29T18:47:09.817Z,43.03
2023-01-29T18:49:15.451Z,44.22
2023-01-29T18:51:20.609Z,39.13
2023-01-29T18:53:25.706Z,37.20
2023-01-29T18:55:33.875Z,38.97
2023-01-29T18:58:26.067Z,35.28
2023-01-29T19:00:08.315Z,30.75
2023-01-29T19:02:16.669Z,33.65
2023-01-29T19:04:23.047Z,32.22
2023-01-29T19:06:28.814Z,35.13
2023-01-29T19:08:34.305Z,38.60
2023-01-29T19:10:46.150Z,33.85
2023-01-29T19:12:54.254Z,37.88
2023-01-29T19:15:00.280Z,41.75
2023-01-29T19:17:05.544Z,34.20
2023-01-29T19:19:12.184Z,34.00
2023-01-29T19:21:19.209Z,39.33
2023-01-29T19:23:24.747Z,36.35
2023-01-29T19:25:30.470Z,34.92
2023-01-29T19:27:35.645Z,42.65
2023-01-29T19:29:43.216Z,38.15
2023-01-29T19:31:51.084Z,34.53
2023-01-29T19:33:56.091Z,37.05
2023-01-29T19:36:03.018Z,34.38
2023-01-29T19:38:08.373Z,33.83
2023-01-29T19:40:17.108Z,36.53
2023-01-29T19:42:22.561Z,37.50
2023-01-29T19:44:28.020Z,37.10
2023-01-29T19:46:36.770Z,35.08
2023-01-29T19:48:41.818Z,36.58
2023-01-29T19:50:47.198Z,33.70
2023-01-29T19:52:53.493Z,35.00
2023-01-29T19:54:59.152Z,37.00
2023-01-29T19:57:04.620Z,36.42
2023-01-29T19:59:10.447Z,33.47
2023-01-29T20:01:18.494Z,39.03
2023-01-29T20:03:26.766Z,37.65
2023-01-29T20:05:33.086Z,34.85
2023-01-29T20:07:40.352Z,41.75
2023-01-29T20:09:45.758Z,40.15
2023-01-29T20:11:52.045Z,39.42
2023-01-29T20:13:57.461Z,39.60
2023-01-29T20:16:05.700Z,37.13
2023-01-29T20:18:12.081Z,46.50
2023-01-29T20:20:22.194Z,36.90
2023-01-29T20:22:29.881Z,40.50
2023-01-29T20:24:40.067Z,40.53
2023-01-29T20:26:49.324Z,32.28
2023-01-29T20:28:58.718Z,35.22
2023-01-29T20:31:04.308Z,44.17
2023-01-29T20:33:12.644Z,45.17
2023-01-29T20:35:20.658Z,41.40
2023-01-29T20:37:25.450Z,41.25
2023-01-29T20:39:30.413Z,35.85
2023-01-29T20:41:35.659Z,39.60
2023-01-29T20:43:40.764Z,42.28
2023-01-29T20:45:45.971Z,40.05
2023-01-29T20:47:51.854Z,39.22
2023-01-29T20:49:56.942Z,38.58
2023-01-29T20:52:06.498Z,37.25
2023-01-29T20:54:12.720Z,36.78
2023-01-29T20:56:32.078Z,36.25
2023-01-29T20:58:45.330Z,35.63
2023-01-29T21:00:50.151Z,34.17
2023-01-29T21:02:55.347Z,35.88
2023-01-29T21:05:00.471Z,36.35
2023-01-29T21:07:08.179Z,39.25
2023-01-29T21:09:13.634Z,36.45
2023-01-29T21:11:18.524Z,38.78
2023-01-29T21:13:23.671Z,36.40
2023-01-29T21:15:29.527Z,33.35
2023-01-29T21:17:37.522Z,36.75
2023-01-29T21:19:45.737Z,39.17
2023-01-29T21:21:53.613Z,39.33
2023-01-29T21:24:01.410Z,31.75
2023-01-29T21:26:07.498Z,31.17
2023-01-29T21:28:12.298Z,34.05
2023-01-29T21:30:21.045Z,33.08
2023-01-29T21:32:28.963Z,32.13
2023-01-29T21:34:33.920Z,30.75
2023-01-29T21:36:42.164Z,37.40
2023-01-29T21:38:47.052Z,33.42
2023-01-29T21:40:54.450Z,30.73
2023-01-29T21:43:13.730Z,34.22
2023-01-29T21:45:18.948Z,28.52
2023-01-29T21:47:23.972Z,37.25
2023-01-29T21:49:30.093Z,31.42
2023-01-29T21:51:35.328Z,24.88
2023-01-29T21:53:40.611Z,29.40
2023-01-29T21:55:45.708Z,31.95
2023-01-29T21:57:54.050Z,27.80
2023-01-29T21:59:59.858Z,29.63
2023-01-29T22:02:07.510Z,28.20
2023-01-29T22:04:12.727Z,29.33
2023-01-29T22:06:22.707Z,29.13
2023-01-29T22:08:28.579Z,32.47
2023-01-29T22:10:36.791Z,28.48
2023-01-29T22:12:41.963Z,30.02
2023-01-29T22:14:49.721Z,25.90
2023-01-29T22:16:54.695Z,29.63
2023-01-29T22:19:00.948Z,29.48
2023-01-29T22:21:06.587Z,24.20
2023-01-29T22:23:12.719Z,21.92
2023-01-29T22:25:20.657Z,23.38
2023-01-29T22:27:25.712Z,21.52
2023-01-29T22:29:30.445Z,19.63
2023-01-29T22:31:37.782Z,22.33
2023-01-29T22:33:42.743Z,22.15
2023-01-29T22:35:56.068Z,22.15
2023-01-29T22:38:00.883Z,20.70
2023-01-29T22:40:08.675Z,16.48
2023-01-29T22:42:13.888Z,19.02
2023-01-29T22:44:18.963Z,16.05
2023-01-29T22:46:27.388Z,20.25
2023-01-29T22:48:37.383Z,16.00
2023-01-29T22:50:42.789Z,17.88
2023-01-29T22:52:54.248Z,13.98
2023-01-29T22:55:01.687Z,16.27
2023-01-29T22:57:06.870Z,20.52
2023-01-29T22:59:14.632Z,17.17
2023-01-29T23:01:24.219Z,15.05
2023-01-29T23:03:30.128Z,13.43
2023-01-29T23:05:37.627Z,13.85
2023-01-29T23:07:42.980Z,16.52
2023-01-29T23:09:50.905Z,12.30
2023-01-29T23:11:55.777Z,14.45
2023-01-29T23:14:00.847Z,15.55
2023-01-29T23:16:05.932Z,13.30
2023-01-29T23:18:11.594Z,13.93
2023-01-29T23:20:20.753Z,11.30
2023-01-29T23:22:28.871Z,15.07
2023-01-29T23:24:33.982Z,13.43
2023-01-29T23:26:53.545Z,12.77
2023-01-29T23:28:59.708Z,14.50
2023-01-29T23:31:04.767Z,13.52
2023-01-29T23:33:12.655Z,13.00
2023-01-29T23:35:18.986Z,14.50
2023-01-29T23:37:23.882Z,12.27
2023-01-29T23:39:31.600Z,14.35
2023-01-29T23:41:36.589Z,14.60
2023-01-29T23:43:41.885Z,12.88
2023-01-29T23:45:47.101Z,16.55
2023-01-29T23:47:52.258Z,13.38
2023-01-29T23:49:57.090Z,12.68
2023-01-29T23:52:02.921Z,13.95
2023-01-29T23:54:08.303Z,15.18
2023-01-29T23:56:16.052Z,19.42
2023-01-29T23:58:21.095Z,16.63
